Time;durP1;ratioP1;P1;durP2;ratioP2;P2;SDS_P1;SDS_P2;PMS_P1;PMS_P2;Temp;Humidity;BMP_temperature;BMP_pressure;BME280_temperature;BME280_humidity;BME280_pressure;Samples;Min_cycle;Max_cycle;Signal;HPM_P1;HPM_P2
2021/10/10 00:00:07;;;;;;;12.77;5.73;;;5.30;99.90;;;6.35;100.00;99218.34;5068865;28;20444;-84
2021/10/10 00:02:36;;;;;;;10.70;6.23;;;5.30;99.90;;;6.28;100.00;99214.63;5067577;28;20470;-84
2021/10/10 00:05:06;;;;;;;13.03;6.50;;;5.20;99.90;;;6.25;100.00;99221.88;5068737;28;20475;-84
2021/10/10 00:07:34;;;;;;;11.90;6.60;;;5.20;99.90;;;6.31;100.00;99216.97;5068680;28;20468;-84
2021/10/10 00:10:03;;;;;;;10.20;6.13;;;5.30;99.90;;;6.33;100.00;99222.03;5057862;28;20518;-84
2021/10/10 00:12:32;;;;;;;11.73;6.30;;;5.40;99.90;;;6.35;100.00;99220.94;5069095;28;20581;-83
2021/10/10 00:15:00;;;;;;;13.40;6.43;;;5.40;99.90;;;6.26;100.00;99211.34;5068392;28;21063;-83
2021/10/10 00:17:30;;;;;;;10.17;5.90;;;5.20;99.90;;;6.22;100.00;99212.56;5062960;28;20494;-83
2021/10/10 00:19:58;;;;;;;12.60;6.47;;;5.20;99.90;;;6.24;100.00;99215.03;5068898;28;20464;-83
2021/10/10 00:22:28;;;;;;;9.03;5.90;;;5.20;99.90;;;6.21;100.00;99212.69;5067764;28;20460;-83
2021/10/10 00:24:56;;;;;;;16.90;7.27;;;5.30;99.90;;;6.17;100.00;99211.31;5067322;28;20869;-83
2021/10/10 00:27:25;;;;;;;12.57;6.43;;;5.20;99.90;;;6.17;100.00;99209.53;5057142;28;20880;-83
2021/10/10 00:29:54;;;;;;;9.37;5.80;;;5.20;99.90;;;6.06;100.00;99209.63;5066320;28;21019;-83
2021/10/10 00:32:23;;;;;;;10.93;6.23;;;5.00;99.90;;;5.86;100.00;99213.06;5065712;28;20544;-83
2021/10/10 00:34:53;;;;;;;8.87;6.03;;;4.80;99.90;;;6.00;100.00;99215.34;5066574;28;20963;-83
2021/10/10 00:37:24;;;;;;;14.30;6.30;;;5.00;99.90;;;6.07;100.00;99217.25;5068354;28;20504;-83
2021/10/10 00:39:54;;;;;;;9.30;5.47;;;5.10;99.90;;;6.10;100.00;99210.19;5067165;28;20517;-83
2021/10/10 00:42:22;;;;;;;9.80;5.90;;;5.10;99.90;;;5.99;100.00;99216.28;5066529;28;20518;-83
2021/10/10 00:44:51;;;;;;;8.77;5.70;;;5.00;99.90;;;5.98;100.00;99220.66;5067054;28;20473;-83
2021/10/10 00:47:19;;;;;;;11.17;6.40;;;4.90;99.90;;;5.98;100.00;99205.06;5067859;28;20456;-83
2021/10/10 00:49:48;;;;;;;12.17;5.50;;;4.90;99.90;;;5.99;100.00;99208.50;5062645;28;20452;-83
2021/10/10 00:52:19;;;;;;;12.07;7.60;;;4.90;99.90;;;5.88;100.00;99212.00;5057384;28;20448;-83
2021/10/10 00:54:49;;;;;;;14.87;5.57;;;4.90;99.90;;;5.76;100.00;99212.16;5065300;28;20470;-83
2021/10/10 00:57:20;;;;;;;10.43;6.43;;;4.70;99.90;;;5.84;100.00;99202.78;5065149;28;20487;-83
2021/10/10 00:59:52;;;;;;;8.13;5.67;;;4.70;99.90;;;5.81;100.00;99205.63;5064944;28;20471;-83
2021/10/10 01:02:21;;;;;;;15.37;6.23;;;4.80;99.90;;;5.76;100.00;99201.78;5062139;28;20474;-83
2021/10/10 01:04:50;;;;;;;10.60;6.23;;;4.70;99.90;;;5.65;100.00;99207.03;5055594;28;20497;-83
2021/10/10 01:07:21;;;;;;;14.70;6.03;;;4.60;99.90;;;5.70;100.00;99202.28;5058351;28;20465;-83
2021/10/10 01:09:50;;;;;;;8.47;5.90;;;4.70;99.90;;;5.79;100.00;99201.53;5054003;28;20534;-83
2021/10/10 01:12:20;;;;;;;9.70;5.80;;;4.80;99.90;;;5.78;100.00;99189.50;5065946;28;20457;-83
2021/10/10 01:14:48;;;;;;;12.63;6.27;;;4.90;99.90;;;5.64;100.00;99192.41;5061917;28;20511;-83
2021/10/10 01:17:17;;;;;;;8.67;5.10;;;4.60;99.90;;;5.49;100.00;99191.91;5058074;28;20504;-83
2021/10/10 01:19:47;;;;;;;12.00;6.77;;;4.40;99.90;;;5.54;100.00;99192.38;5054286;28;20472;-83
2021/10/10 01:22:17;;;;;;;7.63;5.60;;;4.50;99.90;;;5.53;100.00;99198.50;5065384;28;20509;-84
2021/10/10 01:24:48;;;;;;;11.63;5.90;;;4.60;99.90;;;5.49;100.00;99197.09;5061725;28;20546;-83
2021/10/10 01:27:17;;;;;;;8.17;5.23;;;4.50;99.90;;;5.48;100.00;99198.06;5057465;28;20474;-83
2021/10/10 01:29:46;;;;;;;8.00;5.80;;;4.50;99.90;;;5.49;100.00;99189.31;5057883;28;21054;-83
2021/10/10 01:32:14;;;;;;;10.03;6.33;;;4.40;99.90;;;5.38;100.00;99184.22;5059270;28;20495;-83
2021/10/10 01:34:45;;;;;;;7.63;4.87;;;4.30;99.90;;;5.42;100.00;99183.81;5066157;28;20460;-83
2021/10/10 01:37:15;;;;;;;20.60;6.73;;;4.30;99.90;;;5.40;100.00;99180.53;5064664;28;21037;-83
2021/10/10 01:39:45;;;;;;;10.50;5.50;;;4.30;99.90;;;5.34;100.00;99177.63;5059013;28;20463;-82
2021/10/10 01:42:14;;;;;;;9.80;6.00;;;4.30;99.90;;;5.42;100.00;99172.63;5062631;28;20544;-83
2021/10/10 01:44:43;;;;;;;8.53;5.47;;;4.40;99.90;;;5.35;100.00;99177.50;5056970;28;20970;-83
2021/10/10 01:47:11;;;;;;;10.90;6.40;;;4.30;99.90;;;5.33;100.00;99169.03;5067483;28;20529;-83
2021/10/10 01:49:40;;;;;;;10.90;5.80;;;4.30;99.90;;;5.34;100.00;99178.47;5066121;28;20922;-83
2021/10/10 01:52:09;;;;;;;6.57;5.13;;;4.30;99.90;;;5.33;100.00;99174.22;5063978;28;20455;-83
2021/10/10 01:54:38;;;;;;;10.60;6.00;;;4.30;99.90;;;5.27;100.00;99171.31;5061760;28;20501;-83
2021/10/10 01:57:08;;;;;;;10.93;5.80;;;4.20;99.90;;;5.17;100.00;99167.81;5064206;28;20483;-84
2021/10/10 01:59:36;;;;;;;11.03;5.83;;;4.00;99.90;;;5.25;100.00;99165.41;5065376;28;20869;-83
2021/10/10 02:02:05;;;;;;;6.57;5.60;;;4.20;99.90;;;5.23;100.00;99164.72;5066273;28;20826;-83
2021/10/10 02:04:34;;;;;;;8.53;5.30;;;4.20;99.90;;;5.19;100.00;99161.56;5064156;28;20481;-83
2021/10/10 02:07:03;;;;;;;9.20;5.80;;;4.20;99.90;;;5.07;100.00;99163.38;5066583;28;20492;-83
2021/10/10 02:09:31;;;;;;;8.13;6.00;;;4.00;99.90;;;5.15;100.00;99167.94;5060955;28;20492;-83
2021/10/10 02:12:00;;;;;;;8.67;5.63;;;4.10;99.90;;;5.21;100.00;99164.81;5069424;28;20562;-83
2021/10/10 02:14:30;;;;;;;14.87;5.60;;;4.20;99.90;;;5.15;100.00;99165.34;5069494;28;20501;-83
2021/10/10 02:16:59;;;;;;;15.70;5.60;;;4.10;99.90;;;5.09;100.00;99165.84;5067529;28;20474;-83
2021/10/10 02:19:27;;;;;;;12.57;6.43;;;4.00;99.90;;;5.06;100.00;99158.31;5068630;28;20467;-83
2021/10/10 02:21:57;;;;;;;11.97;6.10;;;4.00;99.90;;;5.15;100.00;99159.31;5069681;28;21188;-83
2021/10/10 02:24:25;;;;;;;9.23;5.50;;;4.10;99.90;;;5.12;100.00;99163.00;5070873;28;20501;-83
2021/10/10 02:26:54;;;;;;;8.57;5.30;;;4.10;99.90;;;5.09;100.00;99163.25;5064734;28;20827;-83
2021/10/10 02:29:23;;;;;;;12.70;5.47;;;4.10;99.90;;;5.00;100.00;99161.38;5062355;28;20449;-83
2021/10/10 02:31:53;;;;;;;8.27;5.30;;;3.90;99.90;;;4.97;100.00;99159.03;5070289;28;20441;-83
2021/10/10 02:34:22;;;;;;;10.57;5.43;;;3.90;99.90;;;5.04;100.00;99162.78;5060352;28;20465;-83
2021/10/10 02:36:50;;;;;;;6.77;4.90;;;4.00;99.90;;;5.06;100.00;99160.91;5065657;28;20542;-83
2021/10/10 02:39:19;;;;;;;11.60;5.70;;;4.10;99.90;;;5.05;100.00;99164.44;5069093;28;20524;-84
2021/10/10 02:41:47;;;;;;;11.47;6.00;;;4.10;99.90;;;5.02;100.00;99162.09;5070021;28;20534;-83
2021/10/10 02:44:16;;;;;;;8.63;6.30;;;4.00;99.90;;;4.95;100.00;99158.38;5061977;28;20488;-83
2021/10/10 02:46:44;;;;;;;9.13;5.77;;;3.90;99.90;;;4.92;100.00;99158.63;5073901;28;20482;-83
2021/10/10 02:49:14;;;;;;;10.50;5.93;;;3.90;99.90;;;4.96;100.00;99166.00;5068452;28;20571;-83
2021/10/10 02:51:43;;;;;;;8.93;5.30;;;3.90;99.90;;;4.77;100.00;99160.66;5063202;28;20455;-83
2021/10/10 02:54:11;;;;;;;16.37;5.87;;;3.70;99.90;;;4.81;100.00;99156.06;5070444;28;20454;-83
2021/10/10 02:56:40;;;;;;;9.37;5.43;;;3.70;99.90;;;4.82;100.00;99160.31;5067029;28;20578;-83
2021/10/10 02:59:09;;;;;;;9.37;6.23;;;3.80;99.90;;;4.80;100.00;99159.59;5062200;28;20497;-83
2021/10/10 03:01:37;;;;;;;9.00;6.10;;;3.70;99.90;;;4.73;100.00;99154.06;5065271;28;20456;-83
2021/10/10 03:04:06;;;;;;;7.70;5.27;;;3.60;99.90;;;4.76;100.00;99164.19;5069270;28;20481;-83
2021/10/10 03:06:36;;;;;;;15.13;6.77;;;3.70;99.90;;;4.82;100.00;99162.91;5066478;28;20759;-83
2021/10/10 03:09:04;;;;;;;8.07;5.60;;;3.80;99.90;;;4.80;100.00;99157.00;5054790;28;20523;-83
2021/10/10 03:11:33;;;;;;;14.93;5.40;;;3.90;99.90;;;4.64;100.00;99161.78;5056220;28;20486;-83
2021/10/10 03:14:01;;;;;;;8.87;5.93;;;3.70;99.90;;;4.54;100.00;99157.31;5063851;28;20887;-83
2021/10/10 03:16:31;;;;;;;9.23;5.67;;;3.50;99.90;;;4.54;100.00;99159.09;5066955;28;20495;-82
2021/10/10 03:18:59;;;;;;;8.83;5.67;;;3.50;99.90;;;4.64;100.00;99154.81;5062640;28;20584;-83
2021/10/10 03:21:28;;;;;;;9.97;5.90;;;3.60;99.90;;;4.66;100.00;99155.50;5067771;28;20521;-83
2021/10/10 03:23:58;;;;;;;26.13;5.87;;;3.70;99.90;;;4.65;100.00;99158.25;5066365;28;20465;-83
2021/10/10 03:26:26;;;;;;;11.80;6.27;;;3.70;99.90;;;4.53;100.00;99155.66;5067281;28;20946;-83
2021/10/10 03:28:55;;;;;;;8.00;5.40;;;3.50;99.90;;;4.47;100.00;99148.41;5064951;28;20968;-83
2021/10/10 03:31:23;;;;;;;9.90;5.80;;;3.40;99.90;;;4.38;100.00;99149.09;5063979;28;20452;-83
2021/10/10 03:33:52;;;;;;;10.53;5.53;;;3.30;99.90;;;4.44;100.00;99153.00;5064058;28;20488;-83
2021/10/10 03:36:20;;;;;;;20.33;6.83;;;3.40;99.90;;;4.43;100.00;99152.16;5067876;28;20518;-83
2021/10/10 03:38:49;;;;;;;10.60;6.40;;;3.40;99.90;;;4.38;100.00;99149.09;5068108;28;20759;-83
2021/10/10 03:41:18;;;;;;;7.53;5.37;;;3.30;99.90;;;4.26;100.00;99149.25;5064928;28;20510;-83
2021/10/10 03:43:47;;;;;;;10.53;6.80;;;3.20;99.90;;;4.30;100.00;99146.31;5065804;28;20553;-83
2021/10/10 03:46:15;;;;;;;8.80;5.50;;;3.50;99.90;;;4.36;100.00;99145.81;5064868;28;20468;-83
2021/10/10 03:48:44;;;;;;;11.73;5.67;;;3.40;99.90;;;4.30;100.00;99151.50;5063042;28;20937;-82
2021/10/10 03:51:12;;;;;;;12.87;6.63;;;3.30;99.90;;;4.24;100.00;99145.94;5062892;28;20959;-83
2021/10/10 03:54:09;;;;;;;9.73;5.73;;;3.20;99.90;;;4.28;100.00;99144.75;5062204;28;20699;-83
2021/10/10 03:56:38;;;;;;;11.20;6.40;;;3.20;99.90;;;4.27;100.00;99143.16;5053816;28;20546;-83
2021/10/10 03:59:06;;;;;;;8.73;6.23;;;3.30;99.90;;;4.32;100.00;99138.41;5067595;28;20504;-83
2021/10/10 04:01:37;;;;;;;9.20;5.83;;;3.40;99.90;;;4.28;100.00;99142.19;5062709;28;20467;-83
2021/10/10 04:04:06;;;;;;;15.63;7.77;;;3.30;99.90;;;4.16;100.00;99149.16;5066191;28;20487;-83
2021/10/10 04:06:35;;;;;;;15.07;7.67;;;3.20;99.90;;;4.18;100.00;99136.91;5068847;28;20461;-83
2021/10/10 04:09:04;;;;;;;16.33;6.50;;;3.20;99.90;;;4.12;100.00;99145.16;5064754;28;20453;-83
2021/10/10 04:11:33;;;;;;;11.30;6.80;;;3.10;99.90;;;4.12;100.00;99139.97;5062090;28;20462;-83
2021/10/10 04:14:02;;;;;;;13.27;6.27;;;3.10;99.90;;;4.15;100.00;99149.25;5060753;28;20472;-79
2021/10/10 04:16:31;;;;;;;9.93;6.40;;;3.10;99.90;;;3.99;100.00;99153.03;5056237;28;20528;-86
2021/10/10 04:19:00;;;;;;;17.27;7.50;;;2.90;99.90;;;3.95;100.00;99145.63;5060867;28;20530;-82
2021/10/10 04:21:28;;;;;;;10.80;6.20;;;3.00;99.90;;;4.02;100.00;99152.00;5060587;28;20525;-83
2021/10/10 04:23:57;;;;;;;11.40;6.50;;;3.20;99.90;;;3.99;100.00;99152.22;5067218;28;20548;-82
2021/10/10 04:26:25;;;;;;;10.90;6.50;;;3.10;99.90;;;4.03;100.00;99151.03;5064046;28;20456;-82
2021/10/10 04:28:53;;;;;;;14.60;7.00;;;3.00;99.90;;;3.99;100.00;99147.84;5064050;28;20585;-83
2021/10/10 04:31:23;;;;;;;9.90;5.93;;;3.00;99.90;;;4.04;100.00;99152.69;5063834;28;21060;-83
2021/10/10 04:33:52;;;;;;;10.27;6.80;;;3.00;99.90;;;4.01;100.00;99150.34;5067649;28;20465;-83
2021/10/10 04:36:20;;;;;;;10.60;6.10;;;3.00;99.90;;;3.91;100.00;99145.06;5061020;28;20868;-80
2021/10/10 04:38:49;;;;;;;9.93;5.73;;;2.90;99.90;;;4.06;100.00;99145.63;5061924;28;20521;-82
2021/10/10 04:41:17;;;;;;;17.90;6.67;;;3.10;99.90;;;4.03;100.00;99144.09;5067498;28;20443;-82
2021/10/10 04:43:46;;;;;;;11.53;6.40;;;3.10;99.90;;;4.02;100.00;99145.06;5068389;28;20582;-83
2021/10/10 04:46:14;;;;;;;10.37;5.60;;;3.10;99.90;;;3.99;100.00;99147.06;5064748;28;20498;-82
2021/10/10 04:48:44;;;;;;;10.57;6.10;;;3.00;99.90;;;4.00;100.00;99144.34;5068779;28;20459;-83
2021/10/10 04:51:13;;;;;;;13.07;7.00;;;3.00;99.90;;;3.99;100.00;99147.06;5062837;28;20440;-83
2021/10/10 04:53:41;;;;;;;12.07;6.33;;;3.00;99.90;;;4.03;100.00;99149.25;5068663;28;20855;-83
2021/10/10 04:56:10;;;;;;;9.37;6.10;;;3.00;99.90;;;4.02;100.00;99146.81;5061759;28;20455;-83
2021/10/10 04:58:38;;;;;;;11.80;6.33;;;3.10;99.90;;;3.96;100.00;99148.09;5056965;28;20492;-82
2021/10/10 05:01:07;;;;;;;11.57;6.70;;;3.10;99.90;;;3.93;100.00;99153.50;5068827;28;20447;-83
2021/10/10 05:03:36;;;;;;;7.10;5.57;;;3.00;99.90;;;3.89;100.00;99152.09;5065544;28;20479;-83
2021/10/10 05:06:06;;;;;;;14.43;6.83;;;3.00;99.90;;;3.87;100.00;99150.56;5073104;28;20455;-83
2021/10/10 05:08:35;;;;;;;14.40;6.37;;;2.90;99.90;;;3.93;100.00;99152.69;5063686;28;20470;-83
2021/10/10 05:11:04;;;;;;;8.23;6.10;;;3.00;99.90;;;3.83;100.00;99152.56;5064969;28;20482;-83
2021/10/10 05:13:32;;;;;;;14.63;7.73;;;2.90;99.90;;;3.74;100.00;99144.69;5060940;28;20474;-85
2021/10/10 05:16:01;;;;;;;10.83;6.27;;;2.70;99.90;;;3.78;100.00;99153.88;5064357;28;20486;-83
2021/10/10 05:18:29;;;;;;;10.13;5.40;;;2.80;99.90;;;3.67;100.00;99151.28;5061136;28;20554;-83
2021/10/10 05:20:58;;;;;;;9.47;5.53;;;2.60;99.90;;;3.62;100.00;99148.19;5062028;28;20456;-84
2021/10/10 05:23:29;;;;;;;14.10;5.93;;;2.60;99.90;;;3.75;100.00;99148.94;5065169;28;20456;-83
2021/10/10 05:25:58;;;;;;;9.33;6.10;;;2.70;99.90;;;3.72;100.00;99155.13;5067884;28;20484;-83
2021/10/10 05:28:27;;;;;;;17.47;6.70;;;2.80;99.90;;;3.71;100.00;99152.69;5055665;28;21035;-84
2021/10/10 05:30:56;;;;;;;8.67;5.97;;;2.70;99.90;;;3.69;100.00;99154.56;5067245;28;20483;-84
2021/10/10 05:33:25;;;;;;;11.40;6.63;;;2.80;99.90;;;3.63;100.00;99155.03;5064461;28;20447;-83
2021/10/10 05:35:54;;;;;;;11.63;6.30;;;2.60;99.90;;;3.60;100.00;99155.25;5059875;28;20470;-84
2021/10/10 05:38:23;;;;;;;9.57;5.70;;;2.60;99.90;;;3.61;100.00;99156.91;5076267;28;20457;-83
2021/10/10 05:40:53;;;;;;;8.90;6.30;;;2.70;99.90;;;3.49;100.00;99159.47;5064301;28;20492;-83
2021/10/10 05:43:21;;;;;;;11.37;6.70;;;2.50;99.90;;;3.50;100.00;99152.53;5071529;28;20485;-83
2021/10/10 05:45:50;;;;;;;14.90;6.27;;;2.50;99.90;;;3.43;100.00;99157.34;5060359;28;20842;-83
2021/10/10 05:48:18;;;;;;;10.87;5.23;;;2.50;99.90;;;3.50;100.00;99155.97;5070164;28;20467;-83
2021/10/10 05:50:47;;;;;;;9.17;6.07;;;2.50;99.90;;;3.51;100.00;99155.00;5064554;28;20516;-84
2021/10/10 05:53:15;;;;;;;11.63;6.33;;;2.50;99.90;;;3.41;100.00;99154.03;5072433;28;20838;-84
2021/10/10 05:55:44;;;;;;;12.23;7.30;;;2.40;99.90;;;3.48;100.00;99152.66;5071090;28;20480;-83
2021/10/10 05:58:17;;;;;;;9.40;6.10;;;2.50;99.90;;;3.44;100.00;99156.41;5067287;28;20532;-88
2021/10/10 06:00:45;;;;;;;9.27;5.53;;;2.50;99.90;;;3.47;100.00;99150.19;5066284;28;21141;-83
2021/10/10 06:03:14;;;;;;;10.17;6.50;;;2.50;99.90;;;3.39;100.00;99155.94;5062091;28;20488;-83
2021/10/10 06:05:43;;;;;;;14.83;6.77;;;2.40;99.90;;;3.52;100.00;99154.06;5070748;28;20520;-83
2021/10/10 06:08:11;;;;;;;9.00;6.30;;;2.50;99.90;;;3.59;100.00;99151.00;5063068;28;20803;-83
2021/10/10 06:10:41;;;;;;;10.60;5.93;;;2.70;99.90;;;3.57;100.00;99164.06;5069999;28;20532;-83
2021/10/10 06:13:10;;;;;;;9.40;6.00;;;2.70;99.90;;;3.40;100.00;99167.09;5072641;28;20688;-83
2021/10/10 06:15:41;;;;;;;9.70;6.60;;;2.40;99.90;;;3.43;100.00;99162.53;5075223;28;20546;-83
2021/10/10 06:18:10;;;;;;;10.67;5.77;;;2.40;99.90;;;3.44;100.00;99168.50;5067251;28;20515;-83
2021/10/10 06:20:38;;;;;;;13.53;6.93;;;2.40;99.90;;;3.37;100.00;99165.53;5069044;28;20560;-82
2021/10/10 06:23:07;;;;;;;7.67;5.90;;;2.30;99.90;;;3.50;100.00;99170.66;5065663;28;20459;-82
2021/10/10 06:25:36;;;;;;;9.03;6.20;;;2.50;99.90;;;3.48;100.00;99178.50;5064345;28;20493;-83
2021/10/10 06:28:05;;;;;;;13.00;6.30;;;2.50;99.90;;;3.50;100.00;99171.47;5066367;28;20469;-83
2021/10/10 06:30:39;;;;;;;10.97;6.57;;;2.50;99.90;;;3.61;100.00;99167.25;5068304;28;20503;-87
2021/10/10 06:33:07;;;;;;;8.00;5.93;;;2.60;99.90;;;3.62;100.00;99174.06;5068455;28;20467;-83
2021/10/10 06:35:36;;;;;;;17.30;7.07;;;2.60;99.90;;;3.63;100.00;99176.53;5068849;28;20496;-83
2021/10/10 06:38:04;;;;;;;9.93;6.03;;;2.70;99.90;;;3.68;100.00;99164.06;5064149;28;20528;-83
2021/10/10 06:40:33;;;;;;;11.30;7.00;;;2.90;99.90;;;3.69;100.00;99170.06;5066771;28;20747;-83
2021/10/10 06:43:02;;;;;;;12.07;6.77;;;2.70;99.90;;;3.73;100.00;99172.31;5068010;28;20579;-83
2021/10/10 06:45:30;;;;;;;9.90;6.73;;;2.80;99.90;;;3.71;100.00;99173.38;5070134;28;20454;-83
2021/10/10 06:48:00;;;;;;;11.70;7.20;;;2.80;99.90;;;3.68;100.00;99173.63;5062037;28;20463;-83
2021/10/10 06:50:30;;;;;;;15.67;7.17;;;2.80;99.90;;;3.74;100.00;99183.50;5063277;28;20462;-83
2021/10/10 06:52:59;;;;;;;12.10;6.33;;;2.80;99.90;;;3.75;100.00;99180.78;5071153;28;20455;-83
2021/10/10 06:55:27;;;;;;;13.57;7.40;;;2.90;99.90;;;3.65;100.00;99185.00;5069970;28;20466;-83
2021/10/10 06:57:56;;;;;;;12.20;7.30;;;2.70;99.90;;;3.66;100.00;99191.00;5062306;28;20463;-83
2021/10/10 07:00:25;;;;;;;11.03;6.90;;;2.70;99.90;;;3.66;100.00;99196.16;5063587;28;20494;-83
2021/10/10 07:02:54;;;;;;;14.70;6.70;;;2.70;99.90;;;3.65;100.00;99195.34;5069958;28;20455;-83
2021/10/10 07:05:24;;;;;;;14.10;7.27;;;2.70;99.90;;;3.75;100.00;99190.31;5067047;28;20458;-83
2021/10/10 07:07:53;;;;;;;12.67;7.07;;;2.80;99.90;;;3.78;100.00;99195.25;5069713;28;20488;-83
2021/10/10 07:10:21;;;;;;;13.00;7.80;;;2.90;99.90;;;3.84;100.00;99198.19;5064277;28;20475;-82
2021/10/10 07:12:50;;;;;;;11.90;6.70;;;3.00;99.90;;;3.76;100.00;99207.47;5066528;28;20478;-82
2021/10/10 07:15:19;;;;;;;12.60;7.67;;;2.80;99.90;;;3.79;100.00;99199.47;5060909;28;20565;-82
2021/10/10 07:17:48;;;;;;;10.13;6.83;;;2.80;99.90;;;3.85;100.00;99212.75;5058278;28;20454;-82
2021/10/10 07:20:22;;;;;;;10.33;6.77;;;2.90;99.90;;;3.88;100.00;99201.38;5064206;28;20512;-83
2021/10/10 07:23:03;;;;;;;10.57;6.93;;;2.90;99.90;;;3.82;100.00;99199.22;5064333;28;20833;-83
2021/10/10 07:25:31;;;;;;;10.77;6.27;;;2.90;99.90;;;3.83;100.00;99198.31;5059852;28;20469;-82
2021/10/10 07:28:00;;;;;;;12.47;6.80;;;2.90;99.90;;;3.84;100.00;99202.53;5063326;28;20462;-82
2021/10/10 07:30:28;;;;;;;11.13;6.80;;;2.90;99.90;;;3.77;100.00;99197.00;5064955;28;20499;-83
2021/10/10 07:32:57;;;;;;;16.30;7.00;;;2.80;99.90;;;3.83;100.00;99203.47;5063400;28;20539;-83
2021/10/10 07:35:27;;;;;;;8.90;6.53;;;2.90;99.90;;;3.86;100.00;99198.91;5059616;28;20469;-82
2021/10/10 07:37:57;;;;;;;12.33;7.40;;;2.90;99.90;;;3.86;100.00;99198.06;5062207;28;20484;-83
2021/10/10 07:40:26;;;;;;;12.37;7.33;;;2.90;99.90;;;3.92;100.00;99195.03;5063747;28;20515;-83
2021/10/10 07:42:54;;;;;;;11.37;6.67;;;3.00;99.90;;;3.94;100.00;99200.91;5064733;28;20461;-87
2021/10/10 07:45:25;;;;;;;13.07;7.07;;;3.00;99.90;;;3.96;100.00;99189.50;5060753;28;20497;-82
2021/10/10 07:47:55;;;;;;;16.10;6.73;;;3.00;99.90;;;4.07;100.00;99196.44;5062836;28;20469;-82
2021/10/10 07:50:39;;;;;;;11.73;7.30;;;3.10;99.90;;;4.13;100.00;99202.91;5063502;28;20475;-82
2021/10/10 07:53:09;;;;;;;16.43;7.07;;;3.20;99.90;;;4.24;100.00;99202.91;5060090;28;20525;-82
2021/10/10 07:55:38;;;;;;;14.53;7.13;;;3.30;99.90;;;4.22;100.00;99203.03;5061559;28;20457;-82
2021/10/10 07:58:07;;;;;;;12.17;6.30;;;3.30;99.90;;;4.29;100.00;99208.56;5061479;28;20932;-82
2021/10/10 08:00:36;;;;;;;10.00;6.67;;;3.30;99.90;;;4.36;100.00;99207.97;5064952;28;20575;-82
2021/10/10 08:03:04;;;;;;;8.53;6.60;;;3.40;99.90;;;4.45;100.00;99202.06;5063930;28;20484;-83
2021/10/10 08:05:41;;;;;;;13.67;7.13;;;3.50;99.90;;;4.47;100.00;99204.53;5059276;28;20464;-83
2021/10/10 08:08:12;;;;;;;10.93;7.03;;;3.60;99.90;;;4.57;100.00;99200.28;5070033;28;20474;-82
2021/10/10 08:10:42;;;;;;;13.10;7.20;;;3.60;99.90;;;4.64;100.00;99200.63;5064459;28;20468;-82
2021/10/10 08:13:10;;;;;;;11.50;6.70;;;3.70;99.90;;;4.68;100.00;99197.69;5067964;28;20475;-82
2021/10/10 08:15:39;;;;;;;16.17;7.50;;;3.80;99.90;;;4.74;100.00;99192.00;5066590;28;20491;-82
2021/10/10 08:18:08;;;;;;;12.50;7.17;;;3.80;99.90;;;4.82;100.00;99196.56;5069067;28;20468;-82
2021/10/10 08:20:39;;;;;;;12.97;7.60;;;3.90;99.90;;;4.87;100.00;99197.00;5063257;28;20493;-82
2021/10/10 08:23:09;;;;;;;11.43;7.73;;;4.00;99.90;;;4.94;100.00;99193.00;5061777;28;20465;-83
2021/10/10 08:25:39;;;;;;;12.60;8.10;;;4.10;99.90;;;4.95;100.00;99189.47;5057478;28;20871;-82
2021/10/10 08:28:08;;;;;;;14.27;7.83;;;4.00;99.90;;;5.06;100.00;99190.25;5061331;28;20950;-83
2021/10/10 08:30:37;;;;;;;14.60;7.90;;;4.20;99.90;;;5.12;100.00;99188.91;5062391;28;20555;-83
2021/10/10 08:33:06;;;;;;;13.73;7.33;;;4.20;99.90;;;5.17;100.00;99186.78;5064116;28;20965;-83
2021/10/10 08:35:34;;;;;;;13.50;7.47;;;4.30;99.90;;;5.26;100.00;99185.19;5063053;28;20467;-82
2021/10/10 08:38:03;;;;;;;11.70;7.20;;;4.40;99.90;;;5.30;100.00;99171.03;5067081;28;20471;-82
2021/10/10 08:40:33;;;;;;;13.13;7.47;;;4.40;99.90;;;5.34;100.00;99181.06;5065161;28;21621;-83
2021/10/10 08:43:07;;;;;;;11.67;7.50;;;4.50;99.90;;;5.35;100.00;99177.50;5062752;28;20453;-83
2021/10/10 08:45:36;;;;;;;17.20;8.57;;;4.50;99.90;;;5.42;100.00;99167.44;5059489;28;20465;-82
2021/10/10 08:48:05;;;;;;;14.57;7.60;;;4.50;99.90;;;5.52;100.00;99173.50;5061311;28;20547;-83
2021/10/10 08:50:35;;;;;;;12.80;8.37;;;4.70;99.90;;;5.57;100.00;99174.78;5052835;28;20456;-83
2021/10/10 08:53:03;;;;;;;13.90;8.27;;;4.70;99.90;;;5.62;100.00;99168.38;5051537;28;20459;-83
2021/10/10 08:55:33;;;;;;;15.27;8.63;;;4.70;99.90;;;5.69;100.00;99178.13;5061526;28;20485;-82
2021/10/10 08:58:07;;;;;;;13.27;8.80;;;4.80;99.90;;;5.77;100.00;99173.09;5055360;28;20945;-82
2021/10/10 09:00:41;;;;;;;16.40;9.33;;;4.90;99.90;;;5.84;100.00;99178.59;5063462;28;20518;-83
2021/10/10 09:03:13;;;;;;;13.00;8.40;;;5.00;99.90;;;5.90;100.00;99176.34;5068542;28;20490;-83
2021/10/10 09:05:50;;;;;;;16.30;8.13;;;5.10;99.90;;;5.97;100.00;99168.88;5055056;28;20543;-83
2021/10/10 09:08:19;;;;;;;16.20;7.80;;;5.20;99.90;;;6.02;100.00;99167.53;5061969;28;20843;-83
2021/10/10 09:10:58;;;;;;;17.10;8.33;;;5.20;99.90;;;6.12;100.00;99177.94;5057222;28;20549;-83
2021/10/10 09:13:35;;;;;;;15.73;9.80;;;5.30;99.90;;;6.21;100.00;99171.97;5055918;28;20467;-83
2021/10/10 09:16:06;;;;;;;15.17;9.03;;;5.50;99.90;;;6.28;100.00;99178.25;5048924;28;20499;-83
2021/10/10 09:18:38;;;;;;;16.53;8.30;;;5.50;99.90;;;6.34;100.00;99175.16;5056853;28;20467;-82
2021/10/10 09:21:16;;;;;;;12.70;7.70;;;5.50;99.90;;;6.42;100.00;99170.09;5053241;28;20494;-83
2021/10/10 09:23:49;;;;;;;19.03;8.70;;;5.60;99.90;;;6.47;100.00;99175.72;5058333;28;20476;-82
2021/10/10 09:26:19;;;;;;;16.03;7.60;;;5.70;99.90;;;6.54;100.00;99171.66;5053668;28;20467;-83
2021/10/10 09:28:51;;;;;;;15.30;8.80;;;5.80;99.90;;;6.61;100.00;99173.69;5055707;28;20505;-83
2021/10/10 09:31:19;;;;;;;28.43;14.77;;;5.90;99.90;;;6.68;100.00;99170.44;5062106;28;20466;-83
2021/10/10 09:33:51;;;;;;;20.80;10.87;;;5.90;99.90;;;6.76;100.00;99172.38;5065518;28;20797;-83
2021/10/10 09:36:24;;;;;;;14.00;8.23;;;6.00;99.90;;;6.84;100.00;99172.50;5060765;28;20471;-83
2021/10/10 09:38:57;;;;;;;15.90;9.50;;;6.10;99.90;;;6.91;100.00;99163.19;5056326;28;20452;-82
2021/10/10 09:41:31;;;;;;;11.80;7.90;;;6.20;99.90;;;6.99;100.00;99158.97;5060647;28;20492;-83
2021/10/10 09:44:12;;;;;;;13.03;8.40;;;6.30;99.90;;;7.07;100.00;99155.69;5056630;28;20521;-81
2021/10/10 09:46:43;;;;;;;13.40;7.90;;;6.30;99.90;;;7.14;100.00;99156.78;5057533;28;20505;-81
2021/10/10 09:49:24;;;;;;;13.57;8.27;;;6.40;99.90;;;7.20;100.00;99152.78;5060258;28;20464;-82
2021/10/10 09:51:54;;;;;;;18.67;7.17;;;6.50;99.90;;;7.25;100.00;99138.44;5060981;28;20539;-82
2021/10/10 09:54:24;;;;;;;15.40;8.30;;;6.60;99.90;;;7.32;100.00;99139.53;5062023;28;21020;-82
2021/10/10 09:57:09;;;;;;;12.97;7.20;;;6.70;99.90;;;7.39;100.00;99140.56;5061533;28;20486;-82
2021/10/10 09:59:39;;;;;;;12.90;7.23;;;6.70;99.90;;;7.46;100.00;99140.88;5064630;28;20463;-82
2021/10/10 10:02:08;;;;;;;9.47;6.90;;;6.80;99.90;;;7.52;100.00;99143.72;5058249;28;20576;-81
2021/10/10 10:04:47;;;;;;;15.90;7.60;;;6.90;99.90;;;7.59;100.00;99143.97;5059317;28;20495;-82
2021/10/10 10:07:19;;;;;;;13.00;7.27;;;7.00;99.90;;;7.66;100.00;99141.63;5059235;28;20472;-84
2021/10/10 10:09:52;;;;;;;94.63;41.50;;;7.10;99.90;;;7.74;100.00;99145.16;5058287;28;20464;-83
2021/10/10 10:12:24;;;;;;;18.60;10.13;;;7.10;99.90;;;7.81;100.00;99140.22;5063621;28;20452;-83
2021/10/10 10:14:56;;;;;;;14.37;8.57;;;7.20;99.90;;;7.87;100.00;99144.84;5059102;28;20536;-83
2021/10/10 10:17:29;;;;;;;11.40;6.87;;;7.30;99.90;;;7.95;100.00;99147.53;5062611;28;20482;-83
2021/10/10 10:20:02;;;;;;;13.80;7.17;;;7.40;99.90;;;8.02;100.00;99141.63;5061809;28;20452;-83
2021/10/10 10:22:36;;;;;;;13.37;7.00;;;7.40;99.90;;;8.08;100.00;99137.63;5062565;28;20495;-83
2021/10/10 10:25:07;;;;;;;14.40;7.90;;;7.50;99.90;;;8.14;100.00;99136.22;5067998;28;20456;-82
2021/10/10 10:27:36;;;;;;;12.33;7.00;;;7.60;99.90;;;8.21;100.00;99138.13;5069851;28;20467;-82
2021/10/10 10:30:08;;;;;;;22.97;8.00;;;7.60;99.90;;;8.27;100.00;99134.94;5070226;28;20444;-82